sensor_id;sensor_type;location;lat;lon;timestamp;pressure;altitude;pressure_sealevel;temperature;humidity
65872;BME280;52653;50.080;21.992;2023-05-29T00:01:04;99309.42;;;9.78;77.44
65872;BME280;52653;50.080;21.992;2023-05-29T00:03:54;99311.17;;;9.78;77.60
65872;BME280;52653;50.080;21.992;2023-05-29T00:06:47;99314.15;;;9.77;77.70
65872;BME280;52653;50.080;21.992;2023-05-29T00:09:40;99317.84;;;9.77;77.75
65872;BME280;52653;50.080;21.992;2023-05-29T00:12:33;99312.23;;;9.76;77.63
65872;BME280;52653;50.080;21.992;2023-05-29T00:15:26;99310.33;;;9.72;77.72
65872;BME280;52653;50.080;21.992;2023-05-29T00:18:19;99310.67;;;9.66;77.75
65872;BME280;52653;50.080;21.992;2023-05-29T00:21:12;99310.02;;;9.57;77.82
65872;BME280;52653;50.080;21.992;2023-05-29T00:24:06;99307.04;;;9.49;78.02
65872;BME280;52653;50.080;21.992;2023-05-29T00:26:59;99311.09;;;9.42;78.23
65872;BME280;52653;50.080;21.992;2023-05-29T00:29:52;99307.58;;;9.38;78.53
65872;BME280;52653;50.080;21.992;2023-05-29T00:32:45;99306.70;;;9.37;78.60
65872;BME280;52653;50.080;21.992;2023-05-29T00:35:38;99307.60;;;9.34;78.69
65872;BME280;52653;50.080;21.992;2023-05-29T00:38:24;99307.61;;;9.32;78.92
65872;BME280;52653;50.080;21.992;2023-05-29T00:41:16;99311.98;;;9.33;78.91
65872;BME280;52653;50.080;21.992;2023-05-29T00:44:09;99311.98;;;9.32;78.88
65872;BME280;52653;50.080;21.992;2023-05-29T00:47:02;99310.93;;;9.31;78.73
65872;BME280;52653;50.080;21.992;2023-05-29T00:49:55;99312.31;;;9.27;78.82
65872;BME280;52653;50.080;21.992;2023-05-29T00:52:48;99309.86;;;9.25;78.91
65872;BME280;52653;50.080;21.992;2023-05-29T00:55:34;99306.73;;;9.22;78.82
65872;BME280;52653;50.080;21.992;2023-05-29T00:58:28;99303.77;;;9.16;78.82
65872;BME280;52653;50.080;21.992;2023-05-29T01:01:13;99299.04;;;9.09;78.89
65872;BME280;52653;50.080;21.992;2023-05-29T01:04:07;99297.65;;;9.04;78.89
65872;BME280;52653;50.080;21.992;2023-05-29T01:07:04;99297.28;;;9.02;79.12
65872;BME280;52653;50.080;21.992;2023-05-29T01:09:58;99293.78;;;9.00;79.08
65872;BME280;52653;50.080;21.992;2023-05-29T01:12:54;99291.51;;;9.00;79.17
65872;BME280;52653;50.080;21.992;2023-05-29T01:15:54;99292.38;;;9.01;79.18
65872;BME280;52653;50.080;21.992;2023-05-29T01:18:54;99292.73;;;8.96;79.24
65872;BME280;52653;50.080;21.992;2023-05-29T01:21:56;99285.23;;;8.90;79.32
65872;BME280;52653;50.080;21.992;2023-05-29T01:25:02;99285.21;;;8.84;79.33
65872;BME280;52653;50.080;21.992;2023-05-29T01:27:57;99281.72;;;8.78;79.63
65872;BME280;52653;50.080;21.992;2023-05-29T01:30:51;99285.55;;;8.75;79.77
65872;BME280;52653;50.080;21.992;2023-05-29T01:33:53;99282.05;;;8.74;79.89
65872;BME280;52653;50.080;21.992;2023-05-29T01:36:46;99286.08;;;8.74;79.78
65872;BME280;52653;50.080;21.992;2023-05-29T01:39:38;99286.08;;;8.76;79.81
65872;BME280;52653;50.080;21.992;2023-05-29T01:42:32;99286.09;;;8.77;79.81
65872;BME280;52653;50.080;21.992;2023-05-29T01:45:26;99287.30;;;8.75;79.74
65872;BME280;52653;50.080;21.992;2023-05-29T01:48:19;99290.80;;;8.69;79.67
65872;BME280;52653;50.080;21.992;2023-05-29T01:51:12;99286.59;;;8.60;79.61
65872;BME280;52653;50.080;21.992;2023-05-29T01:54:06;99284.32;;;8.53;79.60
65872;BME280;52653;50.080;21.992;2023-05-29T01:57:00;99283.42;;;8.50;79.65
65872;BME280;52653;50.080;21.992;2023-05-29T01:59:52;99282.55;;;8.49;79.88
65872;BME280;52653;50.080;21.992;2023-05-29T02:02:39;99279.40;;;8.48;80.00
65872;BME280;52653;50.080;21.992;2023-05-29T02:05:32;99279.75;;;8.46;79.98
65872;BME280;52653;50.080;21.992;2023-05-29T02:08:25;99278.70;;;8.42;80.01
65872;BME280;52653;50.080;21.992;2023-05-29T02:11:18;99282.16;;;8.35;79.99
65872;BME280;52653;50.080;21.992;2023-05-29T02:14:12;99283.19;;;8.31;80.17
65872;BME280;52653;50.080;21.992;2023-05-29T02:17:04;99284.59;;;8.27;80.30
65872;BME280;52653;50.080;21.992;2023-05-29T02:19:52;99282.66;;;8.27;80.53
65872;BME280;52653;50.080;21.992;2023-05-29T02:22:44;99278.29;;;8.30;80.46
65872;BME280;52653;50.080;21.992;2023-05-29T02:25:38;99274.10;;;8.31;80.58
65872;BME280;52653;50.080;21.992;2023-05-29T02:28:31;99271.65;;;8.31;80.38
65872;BME280;52653;50.080;21.992;2023-05-29T02:31:23;99272.88;;;8.32;80.58
65872;BME280;52653;50.080;21.992;2023-05-29T02:34:17;99268.33;;;8.29;80.57
65872;BME280;52653;50.080;21.992;2023-05-29T02:37:08;99266.58;;;8.26;80.62
65872;BME280;52653;50.080;21.992;2023-05-29T02:40:01;99263.41;;;8.22;80.42
65872;BME280;52653;50.080;21.992;2023-05-29T02:42:53;99264.98;;;8.18;80.45
65872;BME280;52653;50.080;21.992;2023-05-29T02:45:46;99262.54;;;8.19;80.54
65872;BME280;52653;50.080;21.992;2023-05-29T02:48:39;99261.84;;;8.19;80.45
65872;BME280;52653;50.080;21.992;2023-05-29T02:51:32;99260.80;;;8.23;80.54
65872;BME280;52653;50.080;21.992;2023-05-29T02:54:25;99258.21;;;8.34;80.62
65872;BME280;52653;50.080;21.992;2023-05-29T02:57:11;99257.90;;;8.40;80.50
65872;BME280;52653;50.080;21.992;2023-05-29T03:00:06;99255.45;;;8.44;80.39
65872;BME280;52653;50.080;21.992;2023-05-29T03:02:59;99249.17;;;8.44;80.26
65872;BME280;52653;50.080;21.992;2023-05-29T03:05:52;99248.98;;;8.46;80.44
65872;BME280;52653;50.080;21.992;2023-05-29T03:08:38;99251.79;;;8.50;80.28
65872;BME280;52653;50.080;21.992;2023-05-29T03:11:32;99257.58;;;8.54;80.64
65872;BME280;52653;50.080;21.992;2023-05-29T03:14:27;99263.00;;;8.65;80.73
65872;BME280;52653;50.080;21.992;2023-05-29T03:17:20;99263.19;;;8.79;80.94
65872;BME280;52653;50.080;21.992;2023-05-29T03:20:13;99263.87;;;8.98;80.80
65872;BME280;52653;50.080;21.992;2023-05-29T03:23:07;99262.47;;;9.14;80.68
65872;BME280;52653;50.080;21.992;2023-05-29T03:26:01;99265.08;;;9.28;80.58
65872;BME280;52653;50.080;21.992;2023-05-29T03:28:47;99264.52;;;9.39;80.54
65872;BME280;52653;50.080;21.992;2023-05-29T03:31:42;99267.65;;;9.52;80.51
65872;BME280;52653;50.080;21.992;2023-05-29T03:34:35;99267.09;;;9.65;80.41
65872;BME280;52653;50.080;21.992;2023-05-29T03:37:30;99268.09;;;9.78;80.33
65872;BME280;52653;50.080;21.992;2023-05-29T03:40:22;99265.60;;;9.89;80.03
65872;BME280;52653;50.080;21.992;2023-05-29T03:43:16;99263.77;;;10.04;79.80
65872;BME280;52653;50.080;21.992;2023-05-29T03:46:09;99263.19;;;10.19;79.48
65872;BME280;52653;50.080;21.992;2023-05-29T03:49:03;99267.33;;;10.35;79.34
65872;BME280;52653;50.080;21.992;2023-05-29T03:51:58;99269.32;;;10.54;79.24
65872;BME280;52653;50.080;21.992;2023-05-29T03:54:51;99268.67;;;10.70;78.77
65872;BME280;52653;50.080;21.992;2023-05-29T03:57:44;99272.10;;;10.82;78.44
65872;BME280;52653;50.080;21.992;2023-05-29T04:00:37;99274.14;;;10.91;78.21
65872;BME280;52653;50.080;21.992;2023-05-29T04:03:30;99270.52;;;11.04;78.08
65872;BME280;52653;50.080;21.992;2023-05-29T04:06:24;99270.61;;;11.13;77.82
65872;BME280;52653;50.080;21.992;2023-05-29T04:09:16;99274.48;;;11.31;77.75
65872;BME280;52653;50.080;21.992;2023-05-29T04:12:11;99275.69;;;11.51;77.05
65872;BME280;52653;50.080;21.992;2023-05-29T04:15:06;99276.04;;;11.84;76.26
65872;BME280;52653;50.080;21.992;2023-05-29T04:18:00;99274.01;;;12.08;75.16
65872;BME280;52653;50.080;21.992;2023-05-29T04:20:53;99276.88;;;12.30;74.44
65872;BME280;52653;50.080;21.992;2023-05-29T04:23:46;99278.00;;;12.50;73.79
65872;BME280;52653;50.080;21.992;2023-05-29T04:26:38;99271.58;;;12.68;73.24
65872;BME280;52653;50.080;21.992;2023-05-29T04:29:24;99274.53;;;13.03;73.30
65872;BME280;52653;50.080;21.992;2023-05-29T04:32:17;99272.08;;;13.64;72.34
65872;BME280;52653;50.080;21.992;2023-05-29T04:35:10;99267.65;;;14.26;70.92
65872;BME280;52653;50.080;21.992;2023-05-29T04:38:08;99266.50;;;14.85;69.50
65872;BME280;52653;50.080;21.992;2023-05-29T04:41:01;99267.17;;;15.35;67.15
65872;BME280;52653;50.080;21.992;2023-05-29T04:43:55;99264.89;;;15.81;65.92
65872;BME280;52653;50.080;21.992;2023-05-29T04:46:45;99265.96;;;16.35;65.21
65872;BME280;52653;50.080;21.992;2023-05-29T04:49:39;99269.23;;;16.96;63.54
65872;BME280;52653;50.080;21.992;2023-05-29T04:52:32;99270.48;;;17.54;62.22
65872;BME280;52653;50.080;21.992;2023-05-29T04:55:18;99265.94;;;18.11;60.04
65872;BME280;52653;50.080;21.992;2023-05-29T04:58:05;99264.59;;;18.60;58.21
65872;BME280;52653;50.080;21.992;2023-05-29T05:00:59;99262.55;;;18.93;56.50
65872;BME280;52653;50.080;21.992;2023-05-29T05:03:54;99263.70;;;19.17;55.91
65872;BME280;52653;50.080;21.992;2023-05-29T05:06:41;99265.55;;;19.32;54.53
65872;BME280;52653;50.080;21.992;2023-05-29T05:09:36;99267.45;;;19.47;54.08
65872;BME280;52653;50.080;21.992;2023-05-29T05:12:28;99266.52;;;19.65;52.81
65872;BME280;52653;50.080;21.992;2023-05-29T05:15:21;99267.02;;;19.73;52.77
65872;BME280;52653;50.080;21.992;2023-05-29T05:18:13;99271.84;;;19.85;52.18
65872;BME280;52653;50.080;21.992;2023-05-29T05:21:06;99277.65;;;19.86;51.85
65872;BME280;52653;50.080;21.992;2023-05-29T05:23:59;99272.16;;;19.74;51.63
65872;BME280;52653;50.080;21.992;2023-05-29T05:26:52;99275.73;;;19.53;52.10
65872;BME280;52653;50.080;21.992;2023-05-29T05:29:44;99274.10;;;19.28;52.23
65872;BME280;52653;50.080;21.992;2023-05-29T05:32:39;99276.13;;;19.05;52.97
65872;BME280;52653;50.080;21.992;2023-05-29T05:35:32;99276.08;;;18.84;53.11
65872;BME280;52653;50.080;21.992;2023-05-29T05:38:25;99278.46;;;18.69;53.01
65872;BME280;52653;50.080;21.992;2023-05-29T05:41:18;99277.38;;;18.56;53.96
65872;BME280;52653;50.080;21.992;2023-05-29T05:44:12;99280.91;;;18.51;54.11
65872;BME280;52653;50.080;21.992;2023-05-29T05:47:05;99287.89;;;18.50;54.45
65872;BME280;52653;50.080;21.992;2023-05-29T05:49:59;99287.06;;;18.53;55.14
65872;BME280;52653;50.080;21.992;2023-05-29T05:52:52;99290.03;;;18.59;55.21
65872;BME280;52653;50.080;21.992;2023-05-29T05:55:45;99286.29;;;18.64;54.71
65872;BME280;52653;50.080;21.992;2023-05-29T05:58:38;99286.31;;;18.58;53.80
65872;BME280;52653;50.080;21.992;2023-05-29T06:01:33;99286.55;;;18.48;53.98
65872;BME280;52653;50.080;21.992;2023-05-29T06:04:26;99292.16;;;18.50;54.63
65872;BME280;52653;50.080;21.992;2023-05-29T06:07:19;99289.52;;;18.54;55.17
65872;BME280;52653;50.080;21.992;2023-05-29T06:10:16;99287.67;;;18.51;54.13
65872;BME280;52653;50.080;21.992;2023-05-29T06:13:11;99288.29;;;18.49;54.09
65872;BME280;52653;50.080;21.992;2023-05-29T06:16:08;99285.74;;;18.55;54.60
65872;BME280;52653;50.080;21.992;2023-05-29T06:19:01;99290.77;;;18.59;54.66
65872;BME280;52653;50.080;21.992;2023-05-29T06:21:57;99292.66;;;18.55;54.37
65872;BME280;52653;50.080;21.992;2023-05-29T06:24:50;99297.94;;;18.52;54.70
65872;BME280;52653;50.080;21.992;2023-05-29T06:27:43;99299.20;;;18.51;54.84
65872;BME280;52653;50.080;21.992;2023-05-29T06:30:38;99300.95;;;18.47;54.40
65872;BME280;52653;50.080;21.992;2023-05-29T06:33:33;99304.53;;;18.38;54.51
65872;BME280;52653;50.080;21.992;2023-05-29T06:36:27;99304.17;;;18.38;54.88
65872;BME280;52653;50.080;21.992;2023-05-29T06:39:21;99305.63;;;18.50;55.47
65872;BME280;52653;50.080;21.992;2023-05-29T06:42:16;99306.10;;;18.71;54.74
65872;BME280;52653;50.080;21.992;2023-05-29T06:45:11;99303.47;;;18.88;54.65
65872;BME280;52653;50.080;21.992;2023-05-29T06:48:06;99302.14;;;19.08;54.48
65872;BME280;52653;50.080;21.992;2023-05-29T06:51:00;99304.55;;;19.31;55.04
65872;BME280;52653;50.080;21.992;2023-05-29T06:54:12;99308.06;;;19.49;54.01
65872;BME280;52653;50.080;21.992;2023-05-29T06:57:05;99307.50;;;19.63;54.07
65872;BME280;52653;50.080;21.992;2023-05-29T07:00:02;99311.67;;;19.82;53.92
65872;BME280;52653;50.080;21.992;2023-05-29T07:02:57;99309.73;;;19.93;52.93
65872;BME280;52653;50.080;21.992;2023-05-29T07:05:50;99313.19;;;19.96;52.36
65872;BME280;52653;50.080;21.992;2023-05-29T07:08:43;99310.80;;;20.06;52.82
65872;BME280;52653;50.080;21.992;2023-05-29T07:11:37;99311.71;;;20.13;52.25
65872;BME280;52653;50.080;21.992;2023-05-29T07:14:30;99307.95;;;20.17;52.05
65872;BME280;52653;50.080;21.992;2023-05-29T07:17:23;99310.90;;;20.27;51.70
65872;BME280;52653;50.080;21.992;2023-05-29T07:20:16;99314.38;;;20.29;50.32
65872;BME280;52653;50.080;21.992;2023-05-29T07:23:11;99315.59;;;20.38;51.23
65872;BME280;52653;50.080;21.992;2023-05-29T07:26:04;99312.47;;;20.48;51.75
65872;BME280;52653;50.080;21.992;2023-05-29T07:28:39;99314.23;;;20.52;51.60
65872;BME280;52653;50.080;21.992;2023-05-29T07:31:11;99314.70;;;20.61;51.85
65872;BME280;52653;50.080;21.992;2023-05-29T07:33:44;99315.15;;;20.70;51.89
65872;BME280;52653;50.080;21.992;2023-05-29T07:36:18;99312.75;;;20.79;52.13
65872;BME280;52653;50.080;21.992;2023-05-29T07:38:53;99310.33;;;20.86;51.82
65872;BME280;52653;50.080;21.992;2023-05-29T07:41:33;99307.83;;;20.93;50.90
65872;BME280;52653;50.080;21.992;2023-05-29T07:44:06;99311.55;;;20.90;50.17
65872;BME280;52653;50.080;21.992;2023-05-29T07:46:39;99312.58;;;20.98;50.24
65872;BME280;52653;50.080;21.992;2023-05-29T07:49:33;99311.45;;;21.06;49.20
65872;BME280;52653;50.080;21.992;2023-05-29T07:52:07;99315.85;;;21.23;49.49
65872;BME280;52653;50.080;21.992;2023-05-29T07:54:40;99313.77;;;21.33;49.07
65872;BME280;52653;50.080;21.992;2023-05-29T07:57:12;99314.97;;;21.55;49.22
65872;BME280;52653;50.080;21.992;2023-05-29T07:59:46;99312.50;;;21.75;48.06
65872;BME280;52653;50.080;21.992;2023-05-29T08:02:21;99315.13;;;21.82;47.13
65872;BME280;52653;50.080;21.992;2023-05-29T08:05:10;99313.02;;;21.99;47.17
65872;BME280;52653;50.080;21.992;2023-05-29T08:07:44;99311.05;;;22.16;46.62
65872;BME280;52653;50.080;21.992;2023-05-29T08:10:22;99311.91;;;22.34;45.58
65872;BME280;52653;50.080;21.992;2023-05-29T08:12:54;99308.92;;;22.55;45.09
65872;BME280;52653;50.080;21.992;2023-05-29T08:15:48;99308.75;;;22.78;45.60
65872;BME280;52653;50.080;21.992;2023-05-29T08:18:21;99308.15;;;22.99;44.75
65872;BME280;52653;50.080;21.992;2023-05-29T08:20:54;99310.69;;;23.13;44.31
65872;BME280;52653;50.080;21.992;2023-05-29T08:23:27;99313.91;;;23.23;44.58
65872;BME280;52653;50.080;21.992;2023-05-29T08:26:00;99316.28;;;23.37;44.51
65872;BME280;52653;50.080;21.992;2023-05-29T08:28:36;99314.98;;;23.50;43.81
65872;BME280;52653;50.080;21.992;2023-05-29T08:31:12;99309.46;;;23.74;43.26
65872;BME280;52653;50.080;21.992;2023-05-29T08:33:45;99308.89;;;23.90;42.87
65872;BME280;52653;50.080;21.992;2023-05-29T08:36:18;99308.10;;;23.99;42.76
65872;BME280;52653;50.080;21.992;2023-05-29T08:38:55;99305.80;;;24.14;43.49
65872;BME280;52653;50.080;21.992;2023-05-29T08:41:37;99305.79;;;24.32;43.17
65872;BME280;52653;50.080;21.992;2023-05-29T08:44:14;99308.74;;;24.39;41.99
65872;BME280;52653;50.080;21.992;2023-05-29T08:46:53;99308.44;;;24.44;41.63
65872;BME280;52653;50.080;21.992;2023-05-29T08:49:32;99305.21;;;24.46;41.39
65872;BME280;52653;50.080;21.992;2023-05-29T08:52:14;99300.91;;;24.52;41.68
65872;BME280;52653;50.080;21.992;2023-05-29T08:55:09;99300.85;;;24.56;42.35
65872;BME280;52653;50.080;21.992;2023-05-29T08:57:41;99303.91;;;24.67;42.10
65872;BME280;52653;50.080;21.992;2023-05-29T09:00:29;99302.48;;;24.70;40.37
65872;BME280;52653;50.080;21.992;2023-05-29T09:03:22;99298.75;;;24.75;40.28
65872;BME280;52653;50.080;21.992;2023-05-29T09:06:15;99299.17;;;24.88;40.86
65872;BME280;52653;50.080;21.992;2023-05-29T09:08:53;99298.06;;;24.91;40.92
65872;BME280;52653;50.080;21.992;2023-05-29T09:11:47;99299.61;;;24.89;41.51
65872;BME280;52653;50.080;21.992;2023-05-29T09:14:40;99297.02;;;24.90;41.10
65872;BME280;52653;50.080;21.992;2023-05-29T09:17:16;99292.27;;;24.89;40.33
65872;BME280;52653;50.080;21.992;2023-05-29T09:19:49;99290.30;;;24.88;40.12
65872;BME280;52653;50.080;21.992;2023-05-29T09:22:43;99284.52;;;24.84;40.84
65872;BME280;52653;50.080;21.992;2023-05-29T09:25:28;99280.75;;;24.84;41.57
65872;BME280;52653;50.080;21.992;2023-05-29T09:28:12;99277.66;;;24.87;39.94
65872;BME280;52653;50.080;21.992;2023-05-29T09:30:57;99275.48;;;24.96;40.75
65872;BME280;52653;50.080;21.992;2023-05-29T09:33:48;99278.00;;;25.10;41.58
65872;BME280;52653;50.080;21.992;2023-05-29T09:36:24;99278.50;;;25.21;39.21
65872;BME280;52653;50.080;21.992;2023-05-29T09:39:17;99271.50;;;25.27;40.08
65872;BME280;52653;50.080;21.992;2023-05-29T09:41:50;99266.20;;;25.31;39.61
65872;BME280;52653;50.080;21.992;2023-05-29T09:44:32;99264.27;;;25.33;39.54
65872;BME280;52653;50.080;21.992;2023-05-29T09:47:05;99263.45;;;25.31;40.01
65872;BME280;52653;50.080;21.992;2023-05-29T09:49:43;99266.79;;;25.24;38.37
65872;BME280;52653;50.080;21.992;2023-05-29T09:52:28;99269.25;;;25.14;38.39
65872;BME280;52653;50.080;21.992;2023-05-29T09:55:07;99266.96;;;25.19;39.16
65872;BME280;52653;50.080;21.992;2023-05-29T09:57:48;99263.78;;;25.21;37.87
65872;BME280;52653;50.080;21.992;2023-05-29T10:00:41;99258.19;;;25.22;38.65
65872;BME280;52653;50.080;21.992;2023-05-29T10:03:24;99258.33;;;25.35;39.71
65872;BME280;52653;50.080;21.992;2023-05-29T10:05:59;99257.00;;;25.47;38.71
65872;BME280;52653;50.080;21.992;2023-05-29T10:08:52;99258.73;;;25.58;38.06
65872;BME280;52653;50.080;21.992;2023-05-29T10:11:27;99260.98;;;25.62;37.71
65872;BME280;52653;50.080;21.992;2023-05-29T10:14:22;99259.95;;;25.77;39.21
65872;BME280;52653;50.080;21.992;2023-05-29T10:16:59;99254.57;;;25.98;38.90
65872;BME280;52653;50.080;21.992;2023-05-29T10:19:46;99254.08;;;26.07;38.17
65872;BME280;52653;50.080;21.992;2023-05-29T10:22:45;99255.70;;;26.22;38.68
65872;BME280;52653;50.080;21.992;2023-05-29T10:25:51;99255.71;;;26.35;37.49
65872;BME280;52653;50.080;21.992;2023-05-29T10:28:39;99252.67;;;26.37;36.69
65872;BME280;52653;50.080;21.992;2023-05-29T10:31:30;99252.23;;;26.26;35.43
65872;BME280;52653;50.080;21.992;2023-05-29T10:34:22;99247.30;;;26.17;35.33
65872;BME280;52653;50.080;21.992;2023-05-29T10:37:04;99240.14;;;26.19;35.50
65872;BME280;52653;50.080;21.992;2023-05-29T10:40:07;99237.40;;;26.37;36.95
65872;BME280;52653;50.080;21.992;2023-05-29T10:42:46;99238.91;;;26.49;34.97
65872;BME280;52653;50.080;21.992;2023-05-29T10:45:49;99225.69;;;26.48;34.30
65872;BME280;52653;50.080;21.992;2023-05-29T10:48:44;99231.71;;;26.51;36.03
65872;BME280;52653;50.080;21.992;2023-05-29T10:51:29;99230.15;;;26.65;37.31
65872;BME280;52653;50.080;21.992;2023-05-29T10:54:25;99231.92;;;26.83;36.21
65872;BME280;52653;50.080;21.992;2023-05-29T10:57:12;99229.80;;;26.91;35.22
65872;BME280;52653;50.080;21.992;2023-05-29T10:59:46;99231.45;;;26.94;34.78
65872;BME280;52653;50.080;21.992;2023-05-29T11:02:21;99225.88;;;26.98;34.41
65872;BME280;52653;50.080;21.992;2023-05-29T11:05:21;99225.05;;;27.05;35.72
65872;BME280;52653;50.080;21.992;2023-05-29T11:07:57;99223.13;;;27.12;36.15
65872;BME280;52653;50.080;21.992;2023-05-29T11:10:45;99222.82;;;27.20;36.14
65872;BME280;52653;50.080;21.992;2023-05-29T11:13:55;99225.11;;;27.37;35.87
65872;BME280;52653;50.080;21.992;2023-05-29T11:16:49;99217.05;;;27.48;34.50
65872;BME280;52653;50.080;21.992;2023-05-29T11:19:44;99217.94;;;27.53;33.22
65872;BME280;52653;50.080;21.992;2023-05-29T11:22:56;99218.23;;;27.54;33.87
65872;BME280;52653;50.080;21.992;2023-05-29T11:25:53;99220.95;;;27.47;34.04
65872;BME280;52653;50.080;21.992;2023-05-29T11:28:46;99225.05;;;27.26;34.85
65872;BME280;52653;50.080;21.992;2023-05-29T11:31:39;99218.33;;;27.03;35.25
65872;BME280;52653;50.080;21.992;2023-05-29T11:34:32;99213.98;;;26.77;34.92
65872;BME280;52653;50.080;21.992;2023-05-29T11:37:18;99214.04;;;26.59;34.82
65872;BME280;52653;50.080;21.992;2023-05-29T11:40:13;99208.22;;;26.48;35.04
65872;BME280;52653;50.080;21.992;2023-05-29T11:43:07;99207.84;;;26.38;36.02
65872;BME280;52653;50.080;21.992;2023-05-29T11:46:00;99207.36;;;26.42;35.75
65872;BME280;52653;50.080;21.992;2023-05-29T11:48:52;99202.83;;;26.48;35.16
65872;BME280;52653;50.080;21.992;2023-05-29T11:51:45;99205.70;;;26.53;35.98
65872;BME280;52653;50.080;21.992;2023-05-29T11:54:38;99199.46;;;26.64;34.92
65872;BME280;52653;50.080;21.992;2023-05-29T11:57:33;99198.52;;;26.86;34.78
65872;BME280;52653;50.080;21.992;2023-05-29T12:00:30;99197.71;;;27.09;34.63
65872;BME280;52653;50.080;21.992;2023-05-29T12:03:23;99198.56;;;27.24;34.03
65872;BME280;52653;50.080;21.992;2023-05-29T12:06:16;99194.02;;;27.38;33.07
65872;BME280;52653;50.080;21.992;2023-05-29T12:09:26;99190.55;;;27.55;33.67
65872;BME280;52653;50.080;21.992;2023-05-29T12:12:13;99190.52;;;27.72;32.56
65872;BME280;52653;50.080;21.992;2023-05-29T12:15:08;99185.29;;;27.95;32.53
65872;BME280;52653;50.080;21.992;2023-05-29T12:17:55;99188.94;;;28.10;32.14
65872;BME280;52653;50.080;21.992;2023-05-29T12:20:49;99182.79;;;28.13;31.20
65872;BME280;52653;50.080;21.992;2023-05-29T12:23:42;99175.83;;;28.21;30.88
65872;BME280;52653;50.080;21.992;2023-05-29T12:26:37;99175.31;;;28.32;30.93
65872;BME280;52653;50.080;21.992;2023-05-29T12:29:34;99175.20;;;28.33;31.22
65872;BME280;52653;50.080;21.992;2023-05-29T12:32:35;99176.89;;;28.39;30.32
65872;BME280;52653;50.080;21.992;2023-05-29T12:35:29;99179.25;;;28.41;30.53
65872;BME280;52653;50.080;21.992;2023-05-29T12:38:23;99173.39;;;28.29;29.84
65872;BME280;52653;50.080;21.992;2023-05-29T12:41:29;99168.95;;;28.12;29.73
65872;BME280;52653;50.080;21.992;2023-05-29T12:44:24;99173.31;;;28.00;29.87
65872;BME280;52653;50.080;21.992;2023-05-29T12:47:24;99175.02;;;27.93;30.11
65872;BME280;52653;50.080;21.992;2023-05-29T12:50:06;99172.52;;;28.01;30.50
65872;BME280;52653;50.080;21.992;2023-05-29T12:53:08;99170.69;;;28.22;30.56
65872;BME280;52653;50.080;21.992;2023-05-29T12:56:01;99168.52;;;28.36;31.29
65872;BME280;52653;50.080;21.992;2023-05-29T12:58:55;99170.91;;;28.46;30.63
65872;BME280;52653;50.080;21.992;2023-05-29T13:01:48;99172.49;;;28.61;30.66
65872;BME280;52653;50.080;21.992;2023-05-29T13:04:41;99170.32;;;28.64;30.27
65872;BME280;52653;50.080;21.992;2023-05-29T13:07:35;99168.88;;;28.55;29.51
65872;BME280;52653;50.080;21.992;2023-05-29T13:10:27;99166.96;;;28.43;28.74
65872;BME280;52653;50.080;21.992;2023-05-29T13:13:21;99165.98;;;28.34;28.72
65872;BME280;52653;50.080;21.992;2023-05-29T13:16:15;99162.02;;;28.36;28.95
65872;BME280;52653;50.080;21.992;2023-05-29T13:19:11;99163.15;;;28.48;29.99
65872;BME280;52653;50.080;21.992;2023-05-29T13:22:05;99159.51;;;28.55;29.35
65872;BME280;52653;50.080;21.992;2023-05-29T13:24:58;99152.52;;;28.72;29.79
65872;BME280;52653;50.080;21.992;2023-05-29T13:27:39;99148.30;;;28.77;30.17
65872;BME280;52653;50.080;21.992;2023-05-29T13:30:34;99151.96;;;28.61;30.24
65872;BME280;52653;50.080;21.992;2023-05-29T13:33:27;99151.66;;;28.50;30.89
65872;BME280;52653;50.080;21.992;2023-05-29T13:36:20;99151.11;;;28.50;31.25
65872;BME280;52653;50.080;21.992;2023-05-29T13:39:07;99152.20;;;28.50;30.42
65872;BME280;52653;50.080;21.992;2023-05-29T13:42:00;99149.46;;;28.45;30.07
65872;BME280;52653;50.080;21.992;2023-05-29T13:44:33;99147.41;;;28.44;31.12
65872;BME280;52653;50.080;21.992;2023-05-29T13:47:28;99149.88;;;28.52;31.48
65872;BME280;52653;50.080;21.992;2023-05-29T13:50:23;99148.27;;;28.47;30.87
65872;BME280;52653;50.080;21.992;2023-05-29T13:53:16;99148.29;;;28.49;30.53
65872;BME280;52653;50.080;21.992;2023-05-29T13:56:09;99146.87;;;28.53;30.66
65872;BME280;52653;50.080;21.992;2023-05-29T13:59:02;99144.84;;;28.45;30.37
65872;BME280;52653;50.080;21.992;2023-05-29T14:01:47;99143.65;;;28.39;31.42
65872;BME280;52653;50.080;21.992;2023-05-29T14:04:40;99146.73;;;28.30;30.47
65872;BME280;52653;50.080;21.992;2023-05-29T14:07:34;99141.52;;;28.10;30.52
65872;BME280;52653;50.080;21.992;2023-05-29T14:10:27;99142.52;;;27.91;31.25
65872;BME280;52653;50.080;21.992;2023-05-29T14:13:20;99147.79;;;27.63;32.02
65872;BME280;52653;50.080;21.992;2023-05-29T14:16:14;99148.75;;;27.30;31.93
65872;BME280;52653;50.080;21.992;2023-05-29T14:19:00;99142.50;;;27.01;32.30
65872;BME280;52653;50.080;21.992;2023-05-29T14:21:53;99141.16;;;26.80;32.18
65872;BME280;52653;50.080;21.992;2023-05-29T14:24:46;99139.13;;;26.58;31.90
65872;BME280;52653;50.080;21.992;2023-05-29T14:27:40;99142.49;;;26.36;32.52
65872;BME280;52653;50.080;21.992;2023-05-29T14:30:33;99135.59;;;26.50;33.62
65872;BME280;52653;50.080;21.992;2023-05-29T14:33:26;99133.83;;;26.73;32.80
65872;BME280;52653;50.080;21.992;2023-05-29T14:36:11;99134.45;;;26.98;33.79
65872;BME280;52653;50.080;21.992;2023-05-29T14:39:03;99132.09;;;27.27;32.89
65872;BME280;52653;50.080;21.992;2023-05-29T14:41:56;99131.52;;;27.52;32.86
65872;BME280;52653;50.080;21.992;2023-05-29T14:44:45;99130.11;;;27.73;32.70
65872;BME280;52653;50.080;21.992;2023-05-29T14:47:27;99122.41;;;27.92;31.39
65872;BME280;52653;50.080;21.992;2023-05-29T14:50:20;99119.66;;;28.19;31.13
65872;BME280;52653;50.080;21.992;2023-05-29T14:53:13;99122.90;;;28.42;29.99